sensor_id;sensor_type;location;lat;lon;timestamp;pressure;altitude;pressure_sealevel;temperature;humidity
56668;BME280;42542;48.360;10.958;2023-09-19T00:02:25;95819.78;;;15.75;100.00
56668;BME280;42542;48.360;10.958;2023-09-19T00:05:29;95810.44;;;15.78;100.00
56668;BME280;42542;48.360;10.958;2023-09-19T00:08:31;95811.28;;;15.78;100.00
56668;BME280;42542;48.360;10.958;2023-09-19T00:11:34;95815.63;;;15.79;100.00
56668;BME280;42542;48.360;10.958;2023-09-19T00:14:36;95810.06;;;15.81;100.00
56668;BME280;42542;48.360;10.958;2023-09-19T00:17:39;95813.97;;;15.85;100.00
56668;BME280;42542;48.360;10.958;2023-09-19T00:20:42;95813.59;;;15.88;100.00
56668;BME280;42542;48.360;10.958;2023-09-19T00:23:44;95812.56;;;15.89;100.00
56668;BME280;42542;48.360;10.958;2023-09-19T00:26:46;95817.75;;;15.90;100.00
56668;BME280;42542;48.360;10.958;2023-09-19T00:29:49;95823.75;;;15.92;100.00
56668;BME280;42542;48.360;10.958;2023-09-19T00:32:52;95818.59;;;15.91;100.00
56668;BME280;42542;48.360;10.958;2023-09-19T00:35:56;95826.25;;;15.94;100.00
56668;BME280;42542;48.360;10.958;2023-09-19T00:38:59;95843.25;;;15.94;100.00
56668;BME280;42542;48.360;10.958;2023-09-19T00:42:02;95848.44;;;15.96;100.00
56668;BME280;42542;48.360;10.958;2023-09-19T00:45:07;95850.13;;;15.97;100.00
56668;BME280;42542;48.360;10.958;2023-09-19T00:49:01;95848.25;;;15.97;100.00
56668;BME280;42542;48.360;10.958;2023-09-19T00:52:04;95847.22;;;15.98;100.00
56668;BME280;42542;48.360;10.958;2023-09-19T00:55:07;95836.44;;;15.98;100.00
56668;BME280;42542;48.360;10.958;2023-09-19T00:58:11;95844.09;;;16.01;100.00
56668;BME280;42542;48.360;10.958;2023-09-19T01:01:13;95850.75;;;16.06;100.00
56668;BME280;42542;48.360;10.958;2023-09-19T01:04:17;95847.63;;;16.09;100.00
56668;BME280;42542;48.360;10.958;2023-09-19T01:07:20;95847.22;;;16.12;100.00
56668;BME280;42542;48.360;10.958;2023-09-19T01:10:25;95850.34;;;16.15;100.00
56668;BME280;42542;48.360;10.958;2023-09-19T01:14:06;95839.97;;;16.19;100.00
56668;BME280;42542;48.360;10.958;2023-09-19T01:17:20;95846.63;;;16.23;100.00
56668;BME280;42542;48.360;10.958;2023-09-19T01:20:46;95854.94;;;16.28;100.00
56668;BME280;42542;48.360;10.958;2023-09-19T01:30:33;95854.09;;;16.34;100.00
56668;BME280;42542;48.360;10.958;2023-09-19T01:34:00;95852.25;;;16.34;100.00
56668;BME280;42542;48.360;10.958;2023-09-19T01:37:03;95857.41;;;16.36;100.00
56668;BME280;42542;48.360;10.958;2023-09-19T01:40:07;95851.19;;;16.35;100.00
56668;BME280;42542;48.360;10.958;2023-09-19T01:43:33;95857.22;;;16.37;100.00
56668;BME280;42542;48.360;10.958;2023-09-19T01:46:41;95870.50;;;16.39;100.00
56668;BME280;42542;48.360;10.958;2023-09-19T01:49:52;95864.06;;;16.40;100.00
56668;BME280;42542;48.360;10.958;2023-09-19T01:53:05;95862.00;;;16.42;100.00
56668;BME280;42542;48.360;10.958;2023-09-19T01:56:16;95864.91;;;16.40;100.00
56668;BME280;42542;48.360;10.958;2023-09-19T01:59:34;95866.75;;;16.40;100.00
56668;BME280;42542;48.360;10.958;2023-09-19T02:02:42;95859.50;;;16.40;100.00
56668;BME280;42542;48.360;10.958;2023-09-19T02:05:49;95866.75;;;16.40;100.00
56668;BME280;42542;48.360;10.958;2023-09-19T02:08:54;95862.81;;;16.36;100.00
56668;BME280;42542;48.360;10.958;2023-09-19T02:11:55;95873.81;;;16.34;100.00
56668;BME280;42542;48.360;10.958;2023-09-19T02:14:58;95871.31;;;16.33;100.00
56668;BME280;42542;48.360;10.958;2023-09-19T02:18:00;95876.72;;;16.33;100.00
56668;BME280;42542;48.360;10.958;2023-09-19T02:21:05;95875.44;;;16.29;100.00
56668;BME280;42542;48.360;10.958;2023-09-19T02:24:09;95884.81;;;16.26;100.00
56668;BME280;42542;48.360;10.958;2023-09-19T02:27:12;95877.94;;;16.24;100.00
56668;BME280;42542;48.360;10.958;2023-09-19T02:30:15;95892.66;;;16.21;100.00
56668;BME280;42542;48.360;10.958;2023-09-19T02:33:22;95892.66;;;16.21;100.00
56668;BME280;42542;48.360;10.958;2023-09-19T02:36:27;95880.44;;;16.19;100.00
56668;BME280;42542;48.360;10.958;2023-09-19T02:39:32;95886.66;;;16.19;100.00
56668;BME280;42542;48.360;10.958;2023-09-19T02:42:35;95887.88;;;16.17;100.00
56668;BME280;42542;48.360;10.958;2023-09-19T02:45:36;95890.19;;;16.13;100.00
56668;BME280;42542;48.360;10.958;2023-09-19T02:48:42;95892.88;;;16.13;100.00
56668;BME280;42542;48.360;10.958;2023-09-19T02:51:44;95891.41;;;16.11;100.00
56668;BME280;42542;48.360;10.958;2023-09-19T02:54:47;95900.34;;;16.11;100.00
56668;BME280;42542;48.360;10.958;2023-09-19T02:57:50;95901.16;;;16.12;100.00
56668;BME280;42542;48.360;10.958;2023-09-19T03:00:54;95904.88;;;16.11;100.00
56668;BME280;42542;48.360;10.958;2023-09-19T03:03:58;95906.56;;;16.12;100.00
56668;BME280;42542;48.360;10.958;2023-09-19T03:07:00;95916.50;;;16.11;99.99
56668;BME280;42542;48.360;10.958;2023-09-19T03:10:05;95915.47;;;16.12;99.57
56668;BME280;42542;48.360;10.958;2023-09-19T03:13:07;95904.88;;;16.11;99.47
56668;BME280;42542;48.360;10.958;2023-09-19T03:16:11;95912.16;;;16.10;99.65
56668;BME280;42542;48.360;10.958;2023-09-19T03:19:16;95909.44;;;16.10;99.05
56668;BME280;42542;48.360;10.958;2023-09-19T03:22:20;95906.75;;;16.10;98.61
56668;BME280;42542;48.360;10.958;2023-09-19T03:25:24;95907.59;;;16.11;98.72
56668;BME280;42542;48.360;10.958;2023-09-19T03:28:33;95906.13;;;16.08;98.80
56668;BME280;42542;48.360;10.958;2023-09-19T03:31:35;95919.78;;;16.07;98.43
56668;BME280;42542;48.360;10.958;2023-09-19T03:34:40;95922.28;;;16.08;98.62
56668;BME280;42542;48.360;10.958;2023-09-19T03:37:45;95914.41;;;16.07;98.38
56668;BME280;42542;48.360;10.958;2023-09-19T03:40:49;95926.84;;;16.08;98.09
56668;BME280;42542;48.360;10.958;2023-09-19T03:43:51;95918.75;;;16.08;98.60
56668;BME280;42542;48.360;10.958;2023-09-19T03:46:55;95922.28;;;16.08;98.74
56668;BME280;42542;48.360;10.958;2023-09-19T03:49:59;95927.09;;;16.06;98.34
56668;BME280;42542;48.360;10.958;2023-09-19T03:53:02;95922.28;;;16.08;98.82
56668;BME280;42542;48.360;10.958;2023-09-19T03:56:04;95921.47;;;16.08;98.29
56668;BME280;42542;48.360;10.958;2023-09-19T03:59:08;95929.34;;;16.09;98.38
56668;BME280;42542;48.360;10.958;2023-09-19T04:02:11;95933.91;;;16.09;97.84
56668;BME280;42542;48.360;10.958;2023-09-19T04:05:25;95924.16;;;16.08;98.46
56668;BME280;42542;48.360;10.958;2023-09-19T04:08:27;95929.16;;;16.11;97.94
56668;BME280;42542;48.360;10.958;2023-09-19T04:11:30;95933.72;;;16.10;97.75
56668;BME280;42542;48.360;10.958;2023-09-19T04:14:32;95932.50;;;16.13;97.88
56668;BME280;42542;48.360;10.958;2023-09-19T04:17:35;95926.88;;;16.14;98.44
56668;BME280;42542;48.360;10.958;2023-09-19T04:20:37;95939.97;;;16.17;97.52
56668;BME280;42542;48.360;10.958;2023-09-19T04:23:40;95943.28;;;16.19;97.92
56668;BME280;42542;48.360;10.958;2023-09-19T04:26:42;95952.00;;;16.21;98.15
56668;BME280;42542;48.360;10.958;2023-09-19T04:29:44;95952.00;;;16.21;98.43
56668;BME280;42542;48.360;10.958;2023-09-19T04:32:46;95958.22;;;16.22;98.23
56668;BME280;42542;48.360;10.958;2023-09-19T04:35:51;95962.78;;;16.21;98.52
56668;BME280;42542;48.360;10.958;2023-09-19T04:38:53;95969.22;;;16.20;98.88
56668;BME280;42542;48.360;10.958;2023-09-19T04:41:55;95960.69;;;16.17;99.17
56668;BME280;42542;48.360;10.958;2023-09-19T04:44:57;95960.69;;;16.17;99.39
56668;BME280;42542;48.360;10.958;2023-09-19T04:47:59;95971.09;;;16.20;99.41
56668;BME280;42542;48.360;10.958;2023-09-19T04:51:00;95967.38;;;16.21;99.24
56668;BME280;42542;48.360;10.958;2023-09-19T04:54:03;95972.97;;;16.19;99.65
56668;BME280;42542;48.360;10.958;2023-09-19T04:57:05;95969.44;;;16.19;99.57
56668;BME280;42542;48.360;10.958;2023-09-19T05:00:07;95970.66;;;16.16;99.08
56668;BME280;42542;48.360;10.958;2023-09-19T05:03:13;95975.22;;;16.16;99.58
56668;BME280;42542;48.360;10.958;2023-09-19T05:06:16;95989.53;;;16.16;99.38
56668;BME280;42542;48.360;10.958;2023-09-19T05:09:17;95989.53;;;16.16;99.60
56668;BME280;42542;48.360;10.958;2023-09-19T05:12:21;95988.06;;;16.14;99.28
56668;BME280;42542;48.360;10.958;2023-09-19T05:15:23;95985.97;;;16.09;99.20
56668;BME280;42542;48.360;10.958;2023-09-19T05:18:25;95994.25;;;16.08;99.25
56668;BME280;42542;48.360;10.958;2023-09-19T05:21:27;96000.50;;;16.08;99.40
56668;BME280;42542;48.360;10.958;2023-09-19T05:24:32;96001.75;;;16.06;100.00
56668;BME280;42542;48.360;10.958;2023-09-19T05:27:34;96001.53;;;16.07;100.00
56668;BME280;42542;48.360;10.958;2023-09-19T05:30:37;96002.56;;;16.06;99.71
56668;BME280;42542;48.360;10.958;2023-09-19T05:33:40;96015.41;;;16.04;99.79
56668;BME280;42542;48.360;10.958;2023-09-19T05:36:43;96007.97;;;16.06;100.00
56668;BME280;42542;48.360;10.958;2023-09-19T05:39:45;96015.22;;;16.06;100.00
56668;BME280;42542;48.360;10.958;2023-09-19T05:42:47;96013.13;;;16.08;100.00
56668;BME280;42542;48.360;10.958;2023-09-19T05:45:49;96022.50;;;16.12;100.00
56668;BME280;42542;48.360;10.958;2023-09-19T05:48:54;96022.31;;;16.13;100.00
56668;BME280;42542;48.360;10.958;2023-09-19T05:51:58;96026.66;;;16.14;100.00
56668;BME280;42542;48.360;10.958;2023-09-19T05:55:02;96034.53;;;16.16;100.00
56668;BME280;42542;48.360;10.958;2023-09-19T05:58:07;96023.75;;;16.16;99.90
56668;BME280;42542;48.360;10.958;2023-09-19T06:01:11;96037.03;;;16.17;99.54
56668;BME280;42542;48.360;10.958;2023-09-19T06:04:15;96033.31;;;16.18;99.37
56668;BME280;42542;48.360;10.958;2023-09-19T06:07:18;96039.53;;;16.19;100.00
56668;BME280;42542;48.360;10.958;2023-09-19T06:10:20;96030.44;;;16.20;99.49
56668;BME280;42542;48.360;10.958;2023-09-19T06:13:27;96032.50;;;16.24;99.30
56668;BME280;42542;48.360;10.958;2023-09-19T06:16:29;96032.13;;;16.27;99.49
56668;BME280;42542;48.360;10.958;2023-09-19T06:19:33;96027.75;;;16.26;98.33
56668;BME280;42542;48.360;10.958;2023-09-19T06:22:36;96032.16;;;16.34;98.28
56668;BME280;42542;48.360;10.958;2023-09-19T06:25:40;96038.78;;;16.38;98.09
56668;BME280;42542;48.360;10.958;2023-09-19T06:28:42;96032.34;;;16.39;97.34
56668;BME280;42542;48.360;10.958;2023-09-19T06:31:45;96032.56;;;16.37;97.07
56668;BME280;42542;48.360;10.958;2023-09-19T06:34:52;96048.97;;;16.42;97.13
56668;BME280;42542;48.360;10.958;2023-09-19T06:37:56;96049.41;;;16.46;97.31
56668;BME280;42542;48.360;10.958;2023-09-19T06:41:00;96053.56;;;16.49;97.49
56668;BME280;42542;48.360;10.958;2023-09-19T06:44:03;96058.13;;;16.48;96.79
56668;BME280;42542;48.360;10.958;2023-09-19T06:47:05;96061.03;;;16.47;96.75
56668;BME280;42542;48.360;10.958;2023-09-19T06:50:08;96058.97;;;16.49;97.07
56668;BME280;42542;48.360;10.958;2023-09-19T06:53:15;96061.03;;;16.53;97.20
56668;BME280;42542;48.360;10.958;2023-09-19T06:56:18;96051.91;;;16.54;97.13
56668;BME280;42542;48.360;10.958;2023-09-19T06:59:19;96059.59;;;16.57;96.73
56668;BME280;42542;48.360;10.958;2023-09-19T07:02:22;96062.56;;;16.62;96.46
56668;BME280;42542;48.360;10.958;2023-09-19T07:05:24;96065.69;;;16.66;96.17
56668;BME280;42542;48.360;10.958;2023-09-19T07:08:26;96077.13;;;16.74;95.76
56668;BME280;42542;48.360;10.958;2023-09-19T07:11:29;96076.50;;;16.79;95.96
56668;BME280;42542;48.360;10.958;2023-09-19T07:14:32;96071.34;;;16.84;95.91
56668;BME280;42542;48.360;10.958;2023-09-19T07:17:34;96084.66;;;16.86;95.04
56668;BME280;42542;48.360;10.958;2023-09-19T07:20:37;96078.00;;;16.88;94.76
56668;BME280;42542;48.360;10.958;2023-09-19T07:23:39;96098.34;;;16.91;95.17
56668;BME280;42542;48.360;10.958;2023-09-19T07:26:42;96094.63;;;16.92;94.66
56668;BME280;42542;48.360;10.958;2023-09-19T07:29:44;96089.22;;;16.92;94.49
56668;BME280;42542;48.360;10.958;2023-09-19T07:32:51;96093.78;;;16.91;93.96
56668;BME280;42542;48.360;10.958;2023-09-19T07:35:53;96091.94;;;16.92;93.98
56668;BME280;42542;48.360;10.958;2023-09-19T07:38:56;96087.94;;;16.88;93.58
56668;BME280;42542;48.360;10.958;2023-09-19T07:42:13;96081.13;;;16.92;93.72
56668;BME280;42542;48.360;10.958;2023-09-19T07:45:19;96081.34;;;16.97;93.79
56668;BME280;42542;48.360;10.958;2023-09-19T07:48:21;96080.94;;;17.00;93.55
56668;BME280;42542;48.360;10.958;2023-09-19T07:51:23;96079.03;;;17.00;92.64
56668;BME280;42542;48.360;10.958;2023-09-19T07:54:25;96087.78;;;17.09;92.45
56668;BME280;42542;48.360;10.958;2023-09-19T07:57:32;96088.03;;;17.14;92.24
56668;BME280;42542;48.360;10.958;2023-09-19T08:00:36;96093.44;;;17.21;91.90
56668;BME280;42542;48.360;10.958;2023-09-19T08:03:40;96093.63;;;17.26;91.77
56668;BME280;42542;48.360;10.958;2023-09-19T08:06:43;96093.84;;;17.31;91.42
56668;BME280;42542;48.360;10.958;2023-09-19T08:09:46;96096.13;;;17.34;90.19
56668;BME280;42542;48.360;10.958;2023-09-19T08:12:48;96104.25;;;17.40;89.65
56668;BME280;42542;48.360;10.958;2023-09-19T08:15:58;96088.22;;;17.45;90.25
56668;BME280;42542;48.360;10.958;2023-09-19T08:19:00;96092.41;;;17.54;90.21
56668;BME280;42542;48.360;10.958;2023-09-19T08:22:02;96096.34;;;17.58;88.94
56668;BME280;42542;48.360;10.958;2023-09-19T08:25:04;96100.13;;;17.64;88.21
56668;BME280;42542;48.360;10.958;2023-09-19T08:28:08;96097.63;;;17.69;88.75
56668;BME280;42542;48.360;10.958;2023-09-19T08:31:14;96099.28;;;17.77;88.01
56668;BME280;42542;48.360;10.958;2023-09-19T08:34:16;96093.66;;;17.85;87.14
56668;BME280;42542;48.360;10.958;2023-09-19T08:37:18;96097.78;;;17.94;86.56
56668;BME280;42542;48.360;10.958;2023-09-19T08:40:21;96096.31;;;18.05;86.55
56668;BME280;42542;48.360;10.958;2023-09-19T08:43:23;96094.22;;;18.13;87.01
56668;BME280;42542;48.360;10.958;2023-09-19T08:46:26;96100.88;;;18.17;84.76
56668;BME280;42542;48.360;10.958;2023-09-19T08:52:42;96098.78;;;18.19;82.57
56668;BME280;42542;48.360;10.958;2023-09-19T08:55:46;96105.88;;;18.20;82.12
56668;BME280;42542;48.360;10.958;2023-09-19T08:58:53;96102.50;;;18.25;81.25
56668;BME280;42542;48.360;10.958;2023-09-19T09:01:57;96104.19;;;18.26;79.66
56668;BME280;42542;48.360;10.958;2023-09-19T09:05:00;96109.56;;;18.32;80.30
56668;BME280;42542;48.360;10.958;2023-09-19T09:08:05;96111.63;;;18.37;79.42
56668;BME280;42542;48.360;10.958;2023-09-19T09:11:07;96110.81;;;18.43;78.68
56668;BME280;42542;48.360;10.958;2023-09-19T09:14:09;96122.63;;;18.55;78.90
56668;BME280;42542;48.360;10.958;2023-09-19T09:17:13;96113.66;;;18.61;77.41
56668;BME280;42542;48.360;10.958;2023-09-19T09:20:17;96116.53;;;18.73;76.94
56668;BME280;42542;48.360;10.958;2023-09-19T09:23:20;96123.16;;;18.84;76.63
56668;BME280;42542;48.360;10.958;2023-09-19T09:26:41;96120.38;;;18.97;76.66
56668;BME280;42542;48.360;10.958;2023-09-19T09:29:48;96118.25;;;19.05;75.62
56668;BME280;42542;48.360;10.958;2023-09-19T09:33:11;96109.47;;;19.10;76.02
56668;BME280;42542;48.360;10.958;2023-09-19T09:36:14;96117.75;;;19.22;75.95
56668;BME280;42542;48.360;10.958;2023-09-19T09:39:30;96127.97;;;19.20;73.21
56668;BME280;42542;48.360;10.958;2023-09-19T09:42:35;96130.88;;;19.18;73.73
56668;BME280;42542;48.360;10.958;2023-09-19T09:45:40;96130.69;;;19.20;73.57
56668;BME280;42542;48.360;10.958;2023-09-19T09:49:02;96135.09;;;19.14;71.62
56668;BME280;42542;48.360;10.958;2023-09-19T09:52:17;96144.47;;;19.11;72.32
56668;BME280;42542;48.360;10.958;2023-09-19T09:55:19;96140.56;;;19.07;72.67
56668;BME280;42542;48.360;10.958;2023-09-19T09:58:23;96139.72;;;19.07;73.22
56668;BME280;42542;48.360;10.958;2023-09-19T10:01:46;96140.31;;;19.09;73.27
56668;BME280;42542;48.360;10.958;2023-09-19T10:04:52;96147.16;;;19.18;74.65
56668;BME280;42542;48.360;10.958;2023-09-19T10:08:11;96145.47;;;19.17;72.23
56668;BME280;42542;48.360;10.958;2023-09-19T10:11:24;96147.34;;;19.17;72.92
56668;BME280;42542;48.360;10.958;2023-09-19T10:14:43;96144.06;;;19.15;72.96
56668;BME280;42542;48.360;10.958;2023-09-19T10:17:49;96139.50;;;19.08;72.58
56668;BME280;42542;48.360;10.958;2023-09-19T10:20:52;96138.44;;;19.16;73.69
56668;BME280;42542;48.360;10.958;2023-09-19T10:23:54;96148.56;;;19.27;73.78
56668;BME280;42542;48.360;10.958;2023-09-19T10:26:59;96137.88;;;19.32;72.31
56668;BME280;42542;48.360;10.958;2023-09-19T10:30:04;96142.25;;;19.33;71.46
56668;BME280;42542;48.360;10.958;2023-09-19T10:33:09;96146.44;;;19.36;71.76
56668;BME280;42542;48.360;10.958;2023-09-19T10:36:12;96127.63;;;19.41;72.49
56668;BME280;42542;48.360;10.958;2023-09-19T10:39:15;96139.28;;;19.48;70.92
56668;BME280;42542;48.360;10.958;2023-09-19T10:42:20;96147.81;;;19.52;68.93
56668;BME280;42542;48.360;10.958;2023-09-19T10:45:28;96143.41;;;19.57;69.30
56668;BME280;42542;48.360;10.958;2023-09-19T10:48:31;96131.94;;;19.55;67.50
56668;BME280;42542;48.360;10.958;2023-09-19T10:51:40;96139.38;;;19.60;67.83
56668;BME280;42542;48.360;10.958;2023-09-19T10:54:46;96136.69;;;19.60;66.61
56668;BME280;42542;48.360;10.958;2023-09-19T10:57:54;96154.84;;;19.59;68.33
56668;BME280;42542;48.360;10.958;2023-09-19T11:01:12;96145.88;;;19.59;68.35
56668;BME280;42542;48.360;10.958;2023-09-19T11:07:56;96142.94;;;19.60;69.39
56668;BME280;42542;48.360;10.958;2023-09-19T11:11:00;96143.34;;;19.64;70.10
56668;BME280;42542;48.360;10.958;2023-09-19T11:17:36;96139.91;;;19.75;71.53
56668;BME280;42542;48.360;10.958;2023-09-19T11:20:46;96130.28;;;19.79;70.33
56668;BME280;42542;48.360;10.958;2023-09-19T11:24:28;96131.22;;;19.91;70.23
56668;BME280;42542;48.360;10.958;2023-09-19T11:27:32;96139.84;;;20.06;69.59
56668;BME280;42542;48.360;10.958;2023-09-19T11:33:39;96138.53;;;20.15;67.91
56668;BME280;42542;48.360;10.958;2023-09-19T11:36:48;96149.44;;;20.09;68.71
56668;BME280;42542;48.360;10.958;2023-09-19T11:40:09;96162.88;;;19.97;70.28
56668;BME280;42542;48.360;10.958;2023-09-19T11:43:28;96175.56;;;19.78;71.99
56668;BME280;42542;48.360;10.958;2023-09-19T11:49:52;96168.69;;;19.38;80.66
56668;BME280;42542;48.360;10.958;2023-09-19T11:52:54;96164.66;;;19.22;81.85
56668;BME280;42542;48.360;10.958;2023-09-19T11:55:58;96161.78;;;19.10;82.47
56668;BME280;42542;48.360;10.958;2023-09-19T11:59:02;96149.31;;;19.03;82.67
56668;BME280;42542;48.360;10.958;2023-09-19T12:02:06;96156.00;;;19.00;83.70
56668;BME280;42542;48.360;10.958;2023-09-19T12:05:10;96159.97;;;18.98;84.13
56668;BME280;42542;48.360;10.958;2023-09-19T12:08:14;96149.56;;;18.95;81.70
56668;BME280;42542;48.360;10.958;2023-09-19T12:11:17;96136.25;;;18.93;82.36
56668;BME280;42542;48.360;10.958;2023-09-19T12:14:23;96140.84;;;18.93;80.90
56668;BME280;42542;48.360;10.958;2023-09-19T12:20:43;96140.78;;;18.99;79.93
56668;BME280;42542;48.360;10.958;2023-09-19T12:24:17;96131.38;;;19.02;78.55
56668;BME280;42542;48.360;10.958;2023-09-19T12:27:21;96131.38;;;19.08;78.40
56668;BME280;42542;48.360;10.958;2023-09-19T12:30:28;96117.34;;;19.18;78.80
56668;BME280;42542;48.360;10.958;2023-09-19T12:33:35;96116.03;;;19.27;77.93
56668;BME280;42542;48.360;10.958;2023-09-19T12:36:38;96112.03;;;19.36;76.87
56668;BME280;42542;48.360;10.958;2023-09-19T12:39:43;96105.94;;;19.41;74.87
56668;BME280;42542;48.360;10.958;2023-09-19T12:42:56;96103.19;;;19.47;73.97
56668;BME280;42542;48.360;10.958;2023-09-19T12:46:05;96110.03;;;19.57;73.53
56668;BME280;42542;48.360;10.958;2023-09-19T12:49:17;96111.63;;;19.64;71.90
56668;BME280;42542;48.360;10.958;2023-09-19T12:52:20;96097.41;;;19.69;71.87
56668;BME280;42542;48.360;10.958;2023-09-19T12:55:24;96096.75;;;19.73;70.38
56668;BME280;42542;48.360;10.958;2023-09-19T12:58:26;96102.13;;;19.80;70.87
56668;BME280;42542;48.360;10.958;2023-09-19T13:01:29;96099.34;;;19.86;69.99
56668;BME280;42542;48.360;10.958;2023-09-19T13:04:32;96100.94;;;19.94;68.76
56668;BME280;42542;48.360;10.958;2023-09-19T13:07:40;96102.53;;;20.02;68.16
56668;BME280;42542;48.360;10.958;2023-09-19T13:11:02;96107.91;;;20.08;67.10
56668;BME280;42542;48.360;10.958;2023-09-19T13:17:21;96089.66;;;20.15;66.84
56668;BME280;42542;48.360;10.958;2023-09-19T13:20:26;96089.38;;;20.23;67.26
56668;BME280;42542;48.360;10.958;2023-09-19T13:23:34;96086.34;;;20.32;67.49
56668;BME280;42542;48.360;10.958;2023-09-19T13:26:38;96092.34;;;20.40;67.76
56668;BME280;42542;48.360;10.958;2023-09-19T13:29:40;96087.66;;;20.47;67.21
56668;BME280;42542;48.360;10.958;2023-09-19T13:32:42;96078.94;;;20.45;65.71
56668;BME280;42542;48.360;10.958;2023-09-19T13:35:46;96085.13;;;20.52;65.75
56668;BME280;42542;48.360;10.958;2023-09-19T13:38:49;96081.25;;;20.60;65.44
56668;BME280;42542;48.360;10.958;2023-09-19T13:41:51;96070.88;;;20.69;67.19
56668;BME280;42542;48.360;10.958;2023-09-19T13:44:53;96072.03;;;20.79;66.03
56668;BME280;42542;48.360;10.958;2023-09-19T13:47:54;96064.97;;;20.90;66.42
56668;BME280;42542;48.360;10.958;2023-09-19T13:50:57;96066.44;;;21.04;66.06
56668;BME280;42542;48.360;10.958;2023-09-19T13:53:58;96060.69;;;21.12;65.74
56668;BME280;42542;48.360;10.958;2023-09-19T13:57:01;96070.94;;;21.28;64.96
56668;BME280;42542;48.360;10.958;2023-09-19T14:00:04;96054.28;;;21.36;63.57
56668;BME280;42542;48.360;10.958;2023-09-19T14:03:12;96052.91;;;21.46;62.60
56668;BME280;42542;48.360;10.958;2023-09-19T14:06:17;96053.13;;;21.56;61.19
56668;BME280;42542;48.360;10.958;2023-09-19T14:09:19;96045.72;;;21.74;61.44
56668;BME280;42542;48.360;10.958;2023-09-19T14:12:22;96044.19;;;22.02;60.43
56668;BME280;42542;48.360;10.958;2023-09-19T14:15:24;96038.47;;;22.38;60.52
56668;BME280;42542;48.360;10.958;2023-09-19T14:18:32;96041.13;;;22.73;58.66
56668;BME280;42542;48.360;10.958;2023-09-19T14:21:33;96030.47;;;23.00;57.04
56668;BME280;42542;48.360;10.958;2023-09-19T14:24:38;96043.16;;;23.23;55.13
56668;BME280;42542;48.360;10.958;2023-09-19T14:27:40;96024.81;;;23.35;54.05
56668;BME280;42542;48.360;10.958;2023-09-19T14:30:43;96025.03;;;23.62;54.00
56668;BME280;42542;48.360;10.958;2023-09-19T14:33:45;96030.16;;;23.75;53.76
56668;BME280;42542;48.360;10.958;2023-09-19T14:36:47;96024.19;;;23.95;54.26
56668;BME280;42542;48.360;10.958;2023-09-19T14:39:51;96033.19;;;23.95;52.93
56668;BME280;42542;48.360;10.958;2023-09-19T14:42:52;96032.38;;;23.78;51.62
56668;BME280;42542;48.360;10.958;2023-09-19T14:46:08;96031.81;;;23.76;52.38
56668;BME280;42542;48.360;10.958;2023-09-19T14:49:12;96024.66;;;23.92;51.60
56668;BME280;42542;48.360;10.958;2023-09-19T14:52:14;96020.19;;;24.02;51.04
56668;BME280;42542;48.360;10.958;2023-09-19T14:55:17;96020.19;;;24.19;51.18
56668;BME280;42542;48.360;10.958;2023-09-19T14:58:22;96017.41;;;24.36;49.86
56668;BME280;42542;48.360;10.958;2023-09-19T15:01:27;96015.69;;;24.51;50.16
56668;BME280;42542;48.360;10.958;2023-09-19T15:04:29;96016.22;;;24.70;49.58
56668;BME280;42542;48.360;10.958;2023-09-19T15:07:31;96005.19;;;24.87;48.96
56668;BME280;42542;48.360;10.958;2023-09-19T15:10:34;96011.22;;;25.11;48.44
56668;BME280;42542;48.360;10.958;2023-09-19T15:13:36;96015.16;;;25.20;48.56
56668;BME280;42542;48.360;10.958;2023-09-19T15:16:38;96019.59;;;25.26;46.60
56668;BME280;42542;48.360;10.958;2023-09-19T15:19:43;96008.44;;;25.06;46.54
56668;BME280;42542;48.360;10.958;2023-09-19T15:22:44;96012.13;;;24.95;47.68
56668;BME280;42542;48.360;10.958;2023-09-19T15:25:49;96011.94;;;25.01;47.33
56668;BME280;42542;48.360;10.958;2023-09-19T15:28:51;96018.03;;;25.08;46.35
56668;BME280;42542;48.360;10.958;2023-09-19T15:31:56;96020.28;;;25.16;46.51
56668;BME280;42542;48.360;10.958;2023-09-19T15:35:04;96013.50;;;25.19;45.88
56668;BME280;42542;48.360;10.958;2023-09-19T15:38:05;96018.59;;;25.10;45.33
56668;BME280;42542;48.360;10.958;2023-09-19T15:41:12;96022.03;;;25.01;45.53
56668;BME280;42542;48.360;10.958;2023-09-19T15:44:17;96018.31;;;25.07;46.82
56668;BME280;42542;48.360;10.958;2023-09-19T15:47:19;96020.53;;;25.15;45.98
56668;BME280;42542;48.360;10.958;2023-09-19T15:50:22;96009.00;;;25.08;47.01
56668;BME280;42542;48.360;10.958;2023-09-19T15:53:24;96005.91;;;24.99;47.33
56668;BME280;42542;48.360;10.958;2023-09-19T15:56:26;96009.19;;;24.79;46.95
56668;BME280;42542;48.360;10.958;2023-09-19T15:59:28;96009.59;;;24.44;47.01
56668;BME280;42542;48.360;10.958;2023-09-19T16:02:31;96010.25;;;24.13;47.50
56668;BME280;42542;48.360;10.958;2023-09-19T16:05:37;96009.56;;;23.84;47.61
56668;BME280;42542;48.360;10.958;2023-09-19T16:08:42;96015.09;;;23.56;48.35
56668;BME280;42542;48.360;10.958;2023-09-19T16:11:44;96015.47;;;23.31;48.13
56668;BME280;42542;48.360;10.958;2023-09-19T16:14:45;96019.41;;;23.07;48.41
56668;BME280;42542;48.360;10.958;2023-09-19T16:17:47;96021.75;;;22.86;48.96
56668;BME280;42542;48.360;10.958;2023-09-19T16:20:49;96018.94;;;22.70;49.81
56668;BME280;42542;48.360;10.958;2023-09-19T16:23:51;96029.56;;;22.54;50.30
56668;BME280;42542;48.360;10.958;2023-09-19T16:26:55;96022.59;;;22.35;50.45
56668;BME280;42542;48.360;10.958;2023-09-19T16:29:57;96018.72;;;22.19;51.34
56668;BME280;42542;48.360;10.958;2023-09-19T16:32:59;96018.97;;;22.06;52.15
56668;BME280;42542;48.360;10.958;2023-09-19T16:36:02;96022.97;;;21.92;53.02